createdAt,value
2022-11-23T00:01:20.219Z,8.80
2022-11-23T00:03:50.257Z,7.00
2022-11-23T00:06:19.311Z,9.40
2022-11-23T00:08:47.214Z,5.18
2022-11-23T00:11:15.425Z,7.53
2022-11-23T00:13:43.635Z,9.02
2022-11-23T00:16:14.421Z,6.72
2022-11-23T00:18:44.119Z,7.75
2022-11-23T00:21:14.068Z,6.35
2022-11-23T00:23:42.052Z,5.80
2022-11-23T00:26:09.977Z,7.00
2022-11-23T00:28:40.363Z,7.03
2022-11-23T00:31:11.851Z,14.13
2022-11-23T00:33:40.108Z,7.53
2022-11-23T00:36:12.265Z,5.45
2022-11-23T00:38:40.596Z,36.75
2022-11-23T00:41:10.570Z,23.05
2022-11-23T00:43:38.653Z,7.25
2022-11-23T00:46:09.202Z,12.17
2022-11-23T00:48:37.593Z,13.80
2022-11-23T00:51:07.546Z,50.50
2022-11-23T00:53:37.377Z,25.73
2022-11-23T00:56:06.183Z,18.98
2022-11-23T00:58:34.594Z,22.33
2022-11-23T01:01:05.593Z,20.20
2022-11-23T01:03:36.816Z,8.60
2022-11-23T01:06:07.272Z,9.63
2022-11-23T01:08:37.135Z,8.55
2022-11-23T01:11:06.742Z,6.03
2022-11-23T01:13:36.644Z,8.32
2022-11-23T01:16:06.536Z,9.40
2022-11-23T01:18:34.487Z,11.02
2022-11-23T01:21:02.891Z,18.27
2022-11-23T01:23:32.360Z,9.93
2022-11-23T01:26:05.776Z,15.73
2022-11-23T01:28:34.501Z,14.52
2022-11-23T01:31:07.464Z,7.78
2022-11-23T01:33:35.707Z,5.93
2022-11-23T01:36:10.826Z,8.13
2022-11-23T01:38:38.785Z,9.75
2022-11-23T01:41:09.574Z,5.28
2022-11-23T01:43:37.671Z,7.32
2022-11-23T01:46:06.345Z,7.47
2022-11-23T01:48:38.750Z,4.78
2022-11-23T01:51:10.283Z,8.18
2022-11-23T01:53:39.796Z,8.45
2022-11-23T01:56:14.031Z,7.03
2022-11-23T01:58:45.936Z,6.45
2022-11-23T02:01:15.118Z,9.15
2022-11-23T02:03:44.575Z,5.78
2022-11-23T02:06:16.355Z,8.02
2022-11-23T02:08:44.828Z,7.28
2022-11-23T02:11:15.349Z,5.63
2022-11-23T02:13:45.762Z,11.20
2022-11-23T02:16:14.936Z,6.13
2022-11-23T02:18:45.591Z,7.35
2022-11-23T02:21:14.209Z,6.97
2022-11-23T02:23:56.505Z,7.10
2022-11-23T02:26:28.107Z,6.30
2022-11-23T02:29:01.697Z,7.00
2022-11-23T02:31:32.101Z,9.35
2022-11-23T02:34:00.125Z,9.98
2022-11-23T02:36:36.275Z,9.05
2022-11-23T02:39:10.737Z,12.48
2022-11-23T02:41:43.540Z,7.13
2022-11-23T02:44:22.249Z,8.27
2022-11-23T02:46:51.704Z,6.72
2022-11-23T02:49:19.792Z,6.60
2022-11-23T02:51:47.804Z,11.07
2022-11-23T02:54:15.719Z,5.95
2022-11-23T02:56:45.037Z,7.45
2022-11-23T02:59:13.034Z,10.40
2022-11-23T03:01:44.430Z,8.55
2022-11-23T03:04:14.545Z,7.82
2022-11-23T03:06:42.536Z,6.05
2022-11-23T03:09:10.924Z,6.90
2022-11-23T03:11:38.901Z,9.70
2022-11-23T03:14:08.197Z,8.07
2022-11-23T03:16:44.096Z,7.32
2022-11-23T03:19:12.850Z,12.07
2022-11-23T03:21:40.862Z,5.88
2022-11-23T03:24:09.351Z,6.88
2022-11-23T03:26:38.175Z,4.25
2022-11-23T03:29:12.696Z,8.32
2022-11-23T03:31:41.490Z,5.05
2022-11-23T03:34:13.285Z,5.25
2022-11-23T03:36:41.652Z,5.65
2022-11-23T03:39:10.031Z,4.97
2022-11-23T03:41:56.441Z,6.38
2022-11-23T03:44:31.526Z,6.15
2022-11-23T03:46:59.559Z,7.13
2022-11-23T03:49:28.908Z,6.80
2022-11-23T03:51:56.978Z,9.00
2022-11-23T03:54:24.967Z,5.03
2022-11-23T03:56:52.959Z,11.18
2022-11-23T03:59:20.897Z,7.40
2022-11-23T04:01:50.136Z,8.13
2022-11-23T04:04:25.957Z,8.93
2022-11-23T04:07:00.228Z,5.80
2022-11-23T04:09:33.059Z,9.88
2022-11-23T04:12:04.627Z,8.10
2022-11-23T04:14:33.029Z,9.77
2022-11-23T04:17:03.292Z,13.20
2022-11-23T04:19:32.096Z,5.05
2022-11-23T04:22:00.519Z,8.05
2022-11-23T04:24:32.950Z,9.38
2022-11-23T04:27:03.929Z,7.75
2022-11-23T04:29:32.328Z,6.15
2022-11-23T04:32:01.746Z,7.07
2022-11-23T04:34:29.869Z,4.70
2022-11-23T04:36:57.894Z,8.05
2022-11-23T04:39:33.848Z,8.40
2022-11-23T04:42:19.894Z,7.22
2022-11-23T04:44:53.054Z,9.63
2022-11-23T04:47:22.998Z,9.77
2022-11-23T04:49:51.097Z,5.57
2022-11-23T04:52:20.523Z,5.18
2022-11-23T04:54:51.428Z,5.45
2022-11-23T04:57:19.513Z,7.03
2022-11-23T04:59:49.310Z,4.88
2022-11-23T05:02:17.465Z,7.30
2022-11-23T05:04:46.808Z,11.27
2022-11-23T05:07:17.015Z,7.40
2022-11-23T05:09:50.284Z,5.00
2022-11-23T05:12:19.946Z,9.63
2022-11-23T05:14:47.939Z,5.15
2022-11-23T05:17:21.197Z,8.25
2022-11-23T05:19:51.665Z,6.68
2022-11-23T05:22:20.734Z,5.93
2022-11-23T05:24:48.820Z,7.40
2022-11-23T05:27:20.412Z,13.50
2022-11-23T05:29:48.376Z,12.23
2022-11-23T05:32:16.284Z,5.93
2022-11-23T05:34:44.393Z,7.13
2022-11-23T05:37:16.331Z,6.00
2022-11-23T05:39:53.300Z,6.32
2022-11-23T05:42:28.599Z,9.38
2022-11-23T05:45:01.417Z,6.38
2022-11-23T05:47:38.398Z,7.82
2022-11-23T05:50:10.439Z,5.75
2022-11-23T05:52:44.157Z,7.63
2022-11-23T05:55:12.289Z,5.78
2022-11-23T05:57:40.278Z,8.15
2022-11-23T06:00:11.260Z,7.00
2022-11-23T06:02:46.987Z,5.43
2022-11-23T06:05:14.920Z,4.75
2022-11-23T06:07:53.828Z,6.47
2022-11-23T06:10:26.692Z,5.10
2022-11-23T06:12:54.788Z,6.78
2022-11-23T06:15:24.600Z,6.60
2022-11-23T06:17:52.604Z,8.02
2022-11-23T06:20:22.738Z,7.22
2022-11-23T06:23:00.703Z,6.13
2022-11-23T06:25:30.065Z,5.85
2022-11-23T06:28:14.188Z,5.85
2022-11-23T06:30:45.624Z,7.82
2022-11-23T06:33:15.400Z,6.00
2022-11-23T06:35:54.552Z,7.05
2022-11-23T06:38:24.396Z,5.93
2022-11-23T06:41:00.799Z,12.07
2022-11-23T06:43:31.045Z,5.88
2022-11-23T06:46:00.365Z,8.85
2022-11-23T06:48:30.647Z,7.28
2022-11-23T06:51:00.423Z,6.93
2022-11-23T06:53:31.011Z,11.48
2022-11-23T06:56:03.785Z,8.30
2022-11-23T06:58:33.299Z,12.35
2022-11-23T07:01:06.342Z,11.07
2022-11-23T07:03:40.435Z,10.13
2022-11-23T07:06:20.894Z,17.83
2022-11-23T07:08:51.670Z,10.15
2022-11-23T07:11:30.472Z,8.98
2022-11-23T07:13:58.582Z,9.25
2022-11-23T07:16:28.985Z,8.13
2022-11-23T07:18:59.237Z,7.10
2022-11-23T07:21:27.506Z,6.35
2022-11-23T07:23:56.777Z,11.00
2022-11-23T07:26:24.743Z,13.05
2022-11-23T07:28:52.639Z,32.28
2022-11-23T07:31:21.560Z,19.00
2022-11-23T07:33:49.634Z,14.07
2022-11-23T07:36:18.144Z,12.40
2022-11-23T07:38:46.843Z,16.33
2022-11-23T07:41:18.376Z,14.05
2022-11-23T07:44:21.668Z,14.00
2022-11-23T07:46:54.574Z,6.30
2022-11-23T07:49:22.659Z,7.85
2022-11-23T07:51:50.566Z,9.77
2022-11-23T07:54:23.486Z,6.55
2022-11-23T07:56:53.111Z,8.07
2022-11-23T07:59:21.101Z,8.82
2022-11-23T08:01:53.041Z,8.40
2022-11-23T08:04:23.966Z,11.52
2022-11-23T08:06:51.917Z,4.78
2022-11-23T08:09:19.919Z,9.88
2022-11-23T08:11:47.864Z,5.25
2022-11-23T08:14:17.134Z,6.50
2022-11-23T08:16:45.169Z,10.02
2022-11-23T08:19:13.176Z,10.57
2022-11-23T08:21:41.272Z,9.60
2022-11-23T08:24:09.685Z,9.07
2022-11-23T08:26:37.738Z,7.20
2022-11-23T08:29:06.666Z,6.40
2022-11-23T08:31:36.052Z,8.25
2022-11-23T08:34:04.054Z,6.07
2022-11-23T08:36:32.253Z,5.50
2022-11-23T08:39:00.354Z,6.43
2022-11-23T08:41:28.499Z,5.83
2022-11-23T08:43:56.486Z,7.07
2022-11-23T08:46:24.939Z,7.18
2022-11-23T08:48:54.209Z,7.50
2022-11-23T08:51:23.130Z,6.80
2022-11-23T08:53:51.240Z,5.97
2022-11-23T08:56:19.539Z,4.80
2022-11-23T08:58:47.997Z,9.13
2022-11-23T09:01:18.093Z,6.63
2022-11-23T09:03:46.254Z,10.77
2022-11-23T09:06:15.526Z,5.87
2022-11-23T09:08:43.495Z,8.13
2022-11-23T09:11:13.267Z,8.17
2022-11-23T09:13:41.714Z,10.53
2022-11-23T09:16:10.815Z,11.27
2022-11-23T09:18:39.085Z,12.55
2022-11-23T09:21:07.479Z,8.83
2022-11-23T09:23:36.942Z,7.97
2022-11-23T09:26:06.047Z,9.82
2022-11-23T09:28:34.741Z,6.13
2022-11-23T09:31:05.322Z,5.05
2022-11-23T09:33:33.270Z,8.55
2022-11-23T09:36:02.631Z,6.10
2022-11-23T09:38:55.084Z,6.95
2022-11-23T09:41:54.490Z,7.07
2022-11-23T09:44:28.504Z,8.90
2022-11-23T09:47:10.194Z,12.80
2022-11-23T09:49:45.844Z,10.88
2022-11-23T09:52:17.726Z,6.97
2022-11-23T09:54:48.313Z,8.13
2022-11-23T09:57:22.783Z,10.60
2022-11-23T09:59:55.749Z,5.80
2022-11-23T10:02:26.407Z,9.57
2022-11-23T10:04:55.538Z,7.82
2022-11-23T10:07:43.630Z,7.70
2022-11-23T10:10:23.873Z,13.93
2022-11-23T10:13:01.993Z,11.60
2022-11-23T10:15:34.453Z,8.73
2022-11-23T10:18:23.994Z,9.00
2022-11-23T10:21:00.482Z,9.70
2022-11-23T10:23:43.217Z,8.53
2022-11-23T10:26:16.610Z,11.37
2022-11-23T10:28:47.527Z,6.73
2022-11-23T10:31:17.660Z,9.73
2022-11-23T10:33:54.885Z,8.40
2022-11-23T10:36:22.902Z,7.70
2022-11-23T10:38:52.358Z,8.90
2022-11-23T10:41:20.341Z,9.20
2022-11-23T10:43:53.896Z,6.73
2022-11-23T10:46:31.951Z,13.03
2022-11-23T10:49:19.363Z,9.27
2022-11-23T10:51:54.870Z,6.90
2022-11-23T10:54:30.464Z,8.47
2022-11-23T10:57:00.909Z,5.03
2022-11-23T10:59:37.342Z,5.97
2022-11-23T11:02:25.983Z,5.77
2022-11-23T11:05:46.007Z,8.43
2022-11-23T11:08:16.861Z,10.70
2022-11-23T11:10:49.985Z,7.70
2022-11-23T11:13:25.807Z,11.80
2022-11-23T11:15:56.841Z,10.00
2022-11-23T11:18:29.808Z,15.77
2022-11-23T11:21:00.480Z,15.33
2022-11-23T11:23:31.097Z,7.87
2022-11-23T11:26:09.991Z,7.20
2022-11-23T11:28:41.585Z,12.90
2022-11-23T11:31:48.037Z,10.80
2022-11-23T11:34:22.747Z,6.53
2022-11-23T11:36:58.326Z,7.83
2022-11-23T11:39:31.849Z,10.83
2022-11-23T11:42:04.439Z,8.53
2022-11-23T11:44:37.226Z,9.03
2022-11-23T11:47:26.040Z,6.10
2022-11-23T11:49:59.024Z,12.93
2022-11-23T11:52:30.980Z,7.63
2022-11-23T11:55:05.395Z,15.27
2022-11-23T11:57:37.502Z,15.20
2022-11-23T12:00:12.362Z,7.70
2022-11-23T12:02:51.937Z,9.40
2022-11-23T12:05:25.288Z,9.10
2022-11-23T12:08:02.094Z,9.37
2022-11-23T12:10:37.651Z,7.93
2022-11-23T12:13:06.278Z,4.50
2022-11-23T12:15:49.436Z,8.03
2022-11-23T12:18:47.599Z,11.40
2022-11-23T12:21:32.156Z,12.10
2022-11-23T12:24:13.667Z,8.43
2022-11-23T12:26:49.083Z,11.73
2022-11-23T12:29:49.637Z,4.80
2022-11-23T12:32:31.942Z,7.50
2022-11-23T12:35:23.579Z,8.23
2022-11-23T12:38:05.145Z,6.30
2022-11-23T12:40:45.329Z,4.27
2022-11-23T12:43:16.317Z,8.57
2022-11-23T12:46:11.741Z,5.03
2022-11-23T12:48:52.239Z,10.10
2022-11-23T12:51:30.697Z,6.33
2022-11-23T12:54:16.059Z,7.20
2022-11-23T12:56:58.549Z,5.80
2022-11-23T12:59:31.397Z,5.07
2022-11-23T13:02:06.038Z,8.17
2022-11-23T13:04:55.720Z,5.90
2022-11-23T13:08:03.042Z,5.77
2022-11-23T13:10:46.029Z,9.87
2022-11-23T13:13:30.321Z,5.10
2022-11-23T13:16:22.575Z,8.13
2022-11-23T13:19:10.426Z,7.73
2022-11-23T13:21:40.680Z,8.23
2022-11-23T13:24:32.529Z,16.70
2022-11-23T13:27:44.095Z,10.47
2022-11-23T13:30:32.100Z,6.50
2022-11-23T13:33:32.850Z,9.97
2022-11-23T13:36:09.465Z,7.17
2022-11-23T13:38:42.856Z,6.53
2022-11-23T13:41:55.808Z,6.87
2022-11-23T13:44:27.877Z,11.80
2022-11-23T13:47:19.942Z,7.53
2022-11-23T13:49:50.012Z,5.93
2022-11-23T13:52:28.352Z,7.67
2022-11-23T13:55:07.404Z,7.77
2022-11-23T13:57:38.228Z,5.83
2022-11-23T14:00:48.588Z,10.53
2022-11-23T14:03:52.064Z,7.03
2022-11-23T14:06:41.668Z,12.10
2022-11-23T14:09:16.992Z,9.03
2022-11-23T14:11:55.268Z,8.90
2022-11-23T14:14:27.618Z,11.37
2022-11-23T14:17:22.399Z,8.67
2022-11-23T14:20:25.067Z,7.37
2022-11-23T14:23:13.382Z,7.60
2022-11-23T14:25:51.734Z,11.73
2022-11-23T14:28:34.914Z,8.13
2022-11-23T14:31:17.275Z,11.03
2022-11-23T14:33:53.694Z,7.80
2022-11-23T14:36:31.285Z,7.03
2022-11-23T14:39:27.652Z,8.23
2022-11-23T14:42:00.455Z,8.93
2022-11-23T14:44:35.559Z,4.67
2022-11-23T14:47:07.999Z,8.10
2022-11-23T14:49:37.979Z,5.87
2022-11-23T14:52:06.807Z,11.30
2022-11-23T14:54:36.071Z,15.30
2022-11-23T14:57:05.639Z,9.53
2022-11-23T14:59:37.431Z,9.53
2022-11-23T15:02:15.515Z,4.47
2022-11-23T15:04:58.128Z,9.20
2022-11-23T15:07:29.309Z,14.73
2022-11-23T15:10:07.996Z,9.03
2022-11-23T15:12:43.924Z,10.40
2022-11-23T15:15:20.142Z,10.00
2022-11-23T15:17:55.659Z,10.03
2022-11-23T15:20:29.584Z,15.83
2022-11-23T15:22:57.497Z,10.00
2022-11-23T15:25:25.729Z,14.27
2022-11-23T15:27:53.778Z,27.67
2022-11-23T15:30:23.510Z,38.93
2022-11-23T15:32:59.146Z,20.00
2022-11-23T15:35:33.906Z,47.10
2022-11-23T15:38:02.844Z,22.20
2022-11-23T15:40:36.242Z,25.70
2022-11-23T15:43:04.743Z,26.23
2022-11-23T15:45:58.122Z,11.90
2022-11-23T15:48:31.966Z,15.87
2022-11-23T15:51:04.199Z,18.73
2022-11-23T15:53:34.369Z,14.80
2022-11-23T15:56:05.823Z,20.27
2022-11-23T15:58:35.169Z,18.17
2022-11-23T16:01:08.634Z,21.10
2022-11-23T16:03:43.363Z,35.95
2022-11-23T16:06:24.775Z,56.83
2022-11-23T16:08:52.996Z,39.07
2022-11-23T16:11:34.329Z,27.50
2022-11-23T16:14:17.570Z,31.40
2022-11-23T16:16:47.521Z,46.70
2022-11-23T16:19:25.359Z,52.27
2022-11-23T16:22:02.177Z,59.53
2022-11-23T16:24:33.212Z,27.50
2022-11-23T16:27:01.649Z,27.53
2022-11-23T16:29:34.846Z,28.05
2022-11-23T16:32:06.981Z,16.35
2022-11-23T16:34:35.397Z,12.98
2022-11-23T16:37:05.345Z,17.10
2022-11-23T16:39:33.449Z,22.63
2022-11-23T16:42:01.407Z,12.65
2022-11-23T16:44:31.241Z,21.60
2022-11-23T16:47:19.630Z,17.77
2022-11-23T16:49:47.560Z,17.07
2022-11-23T16:52:17.067Z,21.90
2022-11-23T16:54:45.366Z,11.70
2022-11-23T16:57:20.792Z,20.13
2022-11-23T16:59:49.140Z,18.10
2022-11-23T17:02:17.818Z,18.17
2022-11-23T17:04:46.334Z,15.40
2022-11-23T17:07:16.861Z,15.03
2022-11-23T17:09:44.872Z,16.30
2022-11-23T17:12:17.835Z,19.70
2022-11-23T17:14:48.429Z,21.05
2022-11-23T17:17:21.587Z,28.58
2022-11-23T17:19:50.704Z,26.93
2022-11-23T17:22:21.228Z,16.60
2022-11-23T17:24:50.086Z,22.03
2022-11-23T17:27:22.353Z,14.60
2022-11-23T17:29:58.978Z,10.33
2022-11-23T17:32:27.435Z,7.40
2022-11-23T17:34:55.668Z,9.32
2022-11-23T17:37:25.951Z,21.43
2022-11-23T17:39:54.132Z,18.13
2022-11-23T17:42:22.392Z,32.10
2022-11-23T17:44:50.466Z,15.03
2022-11-23T17:47:24.705Z,12.43
2022-11-23T17:49:53.081Z,12.67
2022-11-23T17:52:21.252Z,11.57
2022-11-23T17:54:50.864Z,12.50
2022-11-23T17:57:21.104Z,10.60
2022-11-23T17:59:49.021Z,8.10
2022-11-23T18:02:17.023Z,11.63
2022-11-23T18:04:45.096Z,10.23
2022-11-23T18:07:14.603Z,6.53
2022-11-23T18:09:42.776Z,7.90
2022-11-23T18:12:12.149Z,7.10
2022-11-23T18:14:40.094Z,5.60
2022-11-23T18:17:08.021Z,11.33
2022-11-23T18:19:36.039Z,4.83
2022-11-23T18:22:03.983Z,11.47
2022-11-23T18:24:31.950Z,6.57
2022-11-23T18:26:59.930Z,8.50
2022-11-23T18:29:29.422Z,4.90
2022-11-23T18:31:57.450Z,6.63
2022-11-23T18:34:25.518Z,7.57
2022-11-23T18:36:53.549Z,6.07
2022-11-23T18:39:21.526Z,7.73
2022-11-23T18:41:49.512Z,7.40
2022-11-23T18:44:17.407Z,8.87
2022-11-23T18:46:46.884Z,5.70
2022-11-23T18:49:14.852Z,7.03
2022-11-23T18:51:43.209Z,6.43
2022-11-23T18:54:11.739Z,7.37
2022-11-23T18:56:39.871Z,22.47
2022-11-23T18:59:12.752Z,28.10
2022-11-23T19:01:48.708Z,27.07
2022-11-23T19:04:17.703Z,18.43
2022-11-23T19:06:45.701Z,14.30
2022-11-23T19:09:15.211Z,13.63
2022-11-23T19:11:43.183Z,10.33
2022-11-23T19:14:11.790Z,37.13
2022-11-23T19:16:39.867Z,23.00
2022-11-23T19:19:09.472Z,18.70
2022-11-23T19:21:37.898Z,14.27
2022-11-23T19:24:07.398Z,10.60
2022-11-23T19:26:35.382Z,10.82
2022-11-23T19:29:03.740Z,8.27
2022-11-23T19:31:33.027Z,5.40
2022-11-23T19:34:02.982Z,6.87
2022-11-23T19:36:33.267Z,5.90
2022-11-23T19:39:01.318Z,42.97
2022-11-23T19:41:30.905Z,17.17
2022-11-23T19:44:00.820Z,9.67
2022-11-23T19:46:29.855Z,34.23
2022-11-23T19:48:58.555Z,13.40
2022-11-23T19:51:27.560Z,11.27
2022-11-23T19:53:58.037Z,11.70
2022-11-23T19:56:28.782Z,9.30
2022-11-23T19:58:58.689Z,12.30
2022-11-23T20:01:28.868Z,13.73
2022-11-23T20:04:02.858Z,9.70
2022-11-23T20:06:37.113Z,6.87
2022-11-23T20:09:08.594Z,10.70
2022-11-23T20:11:37.565Z,12.50
2022-11-23T20:14:05.689Z,20.97
2022-11-23T20:16:34.399Z,19.77
2022-11-23T20:19:04.225Z,14.50
2022-11-23T20:21:33.591Z,11.40
2022-11-23T20:24:05.572Z,8.50
2022-11-23T20:26:37.149Z,8.83
2022-11-23T20:29:06.243Z,8.33
2022-11-23T20:31:35.243Z,15.90
2022-11-23T20:34:07.130Z,9.70
2022-11-23T20:36:37.887Z,9.80
2022-11-23T20:39:07.927Z,10.20
2022-11-23T20:41:38.155Z,6.40
2022-11-23T20:44:07.774Z,18.23
2022-11-23T20:47:00.804Z,5.60
2022-11-23T20:49:23.998Z,7.93
2022-11-23T20:51:51.987Z,6.80
2022-11-23T20:54:19.971Z,5.40
2022-11-23T20:56:49.326Z,7.07
2022-11-23T20:59:17.391Z,9.40
2022-11-23T21:01:45.452Z,7.57
2022-11-23T21:04:13.505Z,6.17
2022-11-23T21:06:41.639Z,7.80
2022-11-23T21:09:11.070Z,5.63
2022-11-23T21:11:56.591Z,6.80
2022-11-23T21:14:27.590Z,6.78
2022-11-23T21:16:58.632Z,6.00
2022-11-23T21:19:28.177Z,7.93
2022-11-23T21:21:56.936Z,5.80
2022-11-23T21:24:25.424Z,13.47
2022-11-23T21:26:53.391Z,8.40
2022-11-23T21:29:22.018Z,7.40
2022-11-23T21:31:51.753Z,7.40
2022-11-23T21:34:21.401Z,11.77
2022-11-23T21:36:50.195Z,8.40
2022-11-23T21:39:18.582Z,7.33
2022-11-23T21:41:47.454Z,8.05
2022-11-23T21:44:15.543Z,7.30
2022-11-23T21:46:43.988Z,7.40
2022-11-23T21:49:13.506Z,7.43
2022-11-23T21:51:42.700Z,7.30
2022-11-23T21:54:14.312Z,6.27
2022-11-23T21:56:42.997Z,7.47
2022-11-23T21:59:11.113Z,10.70
2022-11-23T22:01:39.494Z,7.13
2022-11-23T22:04:09.780Z,6.97
2022-11-23T22:06:39.822Z,6.45
2022-11-23T22:09:09.449Z,7.38
2022-11-23T22:11:41.136Z,5.50
2022-11-23T22:14:11.627Z,6.60
2022-11-23T22:16:42.474Z,6.13
2022-11-23T22:19:12.140Z,6.07
2022-11-23T22:21:43.374Z,6.80
2022-11-23T22:24:13.614Z,8.38
2022-11-23T22:26:41.873Z,8.13
2022-11-23T22:29:10.049Z,6.97
2022-11-23T22:31:39.184Z,6.03
2022-11-23T22:34:11.708Z,7.73
2022-11-23T22:36:41.180Z,7.63
2022-11-23T22:39:09.523Z,7.70
2022-11-23T22:41:38.218Z,6.80
2022-11-23T22:44:07.914Z,7.10
2022-11-23T22:46:36.417Z,6.10
2022-11-23T22:49:04.767Z,8.53
2022-11-23T22:51:33.040Z,8.70
2022-11-23T22:54:03.155Z,10.37
2022-11-23T22:56:31.847Z,8.83
2022-11-23T22:59:00.234Z,5.60
2022-11-23T23:01:30.438Z,6.83
2022-11-23T23:04:00.464Z,12.00
2022-11-23T23:06:30.375Z,7.20
2022-11-23T23:08:59.813Z,7.97
2022-11-23T23:11:30.952Z,7.77
2022-11-23T23:13:59.283Z,6.30
2022-11-23T23:16:27.604Z,6.87
2022-11-23T23:18:56.765Z,10.93
2022-11-23T23:21:25.267Z,7.90
2022-11-23T23:23:56.529Z,11.20
2022-11-23T23:26:26.370Z,8.55
2022-11-23T23:28:57.032Z,14.25
2022-11-23T23:31:25.470Z,10.67
2022-11-23T23:33:54.565Z,8.82
2022-11-23T23:36:23.916Z,8.00
2022-11-23T23:38:52.422Z,12.57
2022-11-23T23:41:20.853Z,7.83
2022-11-23T23:43:49.067Z,10.50
2022-11-23T23:46:18.777Z,7.00
2022-11-23T23:48:47.286Z,12.97
2022-11-23T23:51:17.299Z,15.30
2022-11-23T23:53:46.120Z,13.97
2022-11-23T23:56:16.150Z,14.20
2022-11-23T23:58:45.807Z,12.13
